createdAt,value
2017-07-18T00:02:23.091Z,96954.11
2017-07-18T00:04:49.106Z,96952.34
2017-07-18T00:07:14.955Z,96951.06
2017-07-18T00:09:40.908Z,96953.77
2017-07-18T00:12:06.752Z,96949.70
2017-07-18T00:14:32.607Z,96955.14
2017-07-18T00:16:58.577Z,96930.58
2017-07-18T00:19:24.444Z,96949.75
2017-07-18T00:21:50.430Z,96942.02
2017-07-18T00:24:16.253Z,96936.61
2017-07-18T00:26:42.102Z,96942.38
2017-07-18T00:29:08.093Z,96938.51
2017-07-18T00:31:33.971Z,96937.64
2017-07-18T00:33:59.928Z,96934.63
2017-07-18T00:36:25.774Z,96937.42
2017-07-18T00:38:51.604Z,96930.58
2017-07-18T00:41:18.433Z,96932.41
2017-07-18T00:43:44.363Z,96936.09
2017-07-18T00:46:10.223Z,96937.83
2017-07-18T00:48:36.089Z,96932.98
2017-07-18T00:51:01.924Z,96932.75
2017-07-18T00:53:27.864Z,96930.88
2017-07-18T00:55:53.725Z,96904.02
2017-07-18T00:58:19.609Z,96937.23
2017-07-18T01:00:45.598Z,96938.09
2017-07-18T01:03:11.455Z,96939.50
2017-07-18T01:05:37.365Z,96937.42
2017-07-18T01:08:03.270Z,96937.23
2017-07-18T01:10:29.210Z,96927.23
2017-07-18T01:12:55.072Z,96921.66
2017-07-18T01:15:21.060Z,96919.83
2017-07-18T01:17:46.936Z,96917.61
2017-07-18T01:20:12.825Z,96918.76
2017-07-18T01:22:38.709Z,96918.20
2017-07-18T01:25:04.590Z,96918.68
2017-07-18T01:27:30.464Z,96918.00
2017-07-18T01:29:56.353Z,96912.63
2017-07-18T01:32:22.225Z,96914.33
2017-07-18T01:34:48.154Z,96913.79
2017-07-18T01:37:14.060Z,96906.92
2017-07-18T01:39:39.917Z,96911.22
2017-07-18T01:42:05.801Z,96909.42
2017-07-18T01:44:31.682Z,96912.25
2017-07-18T01:46:57.534Z,96914.13
2017-07-18T01:49:23.407Z,96908.27
2017-07-18T01:51:49.531Z,96906.69
2017-07-18T01:54:15.408Z,96870.91
2017-07-18T01:56:41.267Z,96902.64
2017-07-18T01:59:07.272Z,96899.06
2017-07-18T02:01:33.253Z,96897.02
2017-07-18T02:03:59.105Z,96900.06
2017-07-18T02:06:24.990Z,96901.95
2017-07-18T02:08:50.929Z,96896.63
2017-07-18T02:11:16.811Z,96894.86
2017-07-18T02:13:42.853Z,96887.83
2017-07-18T02:16:08.805Z,96892.64
2017-07-18T02:18:34.698Z,96893.45
2017-07-18T02:21:00.620Z,96897.20
2017-07-18T02:23:26.536Z,96892.06
2017-07-18T02:25:52.445Z,96898.16
2017-07-18T02:28:18.288Z,96893.84
2017-07-18T02:30:44.220Z,96894.73
2017-07-18T02:33:10.213Z,96890.36
2017-07-18T02:35:36.128Z,96892.04
2017-07-18T02:38:02.004Z,96885.84
2017-07-18T02:40:27.908Z,96888.68
2017-07-18T02:42:53.818Z,96881.14
2017-07-18T02:45:19.709Z,96883.37
2017-07-18T02:47:45.644Z,96888.64
2017-07-18T02:50:11.500Z,96890.63
2017-07-18T02:52:37.575Z,96897.21
2017-07-18T02:55:03.540Z,96896.02
2017-07-18T02:57:29.429Z,96894.62
2017-07-18T02:59:55.349Z,96894.75
2017-07-18T03:02:21.211Z,96889.86
2017-07-18T03:04:47.085Z,96893.27
2017-07-18T03:07:12.991Z,96888.50
2017-07-18T03:09:38.865Z,96882.48
2017-07-18T03:12:04.732Z,96890.70
2017-07-18T03:14:30.789Z,96884.64
2017-07-18T03:16:56.669Z,96880.97
2017-07-18T03:19:22.592Z,96886.58
2017-07-18T03:21:48.561Z,96884.80
2017-07-18T03:24:26.517Z,96888.00
2017-07-18T03:26:52.484Z,96885.30
2017-07-18T03:29:18.345Z,96884.84
2017-07-18T03:31:44.222Z,96892.57
2017-07-18T03:34:10.099Z,96890.06
2017-07-18T03:36:36.004Z,96895.83
2017-07-18T03:39:01.945Z,96891.15
2017-07-18T03:41:27.765Z,96884.30
2017-07-18T03:43:53.601Z,96883.85
2017-07-18T03:46:19.428Z,96886.31
2017-07-18T03:48:45.230Z,96886.50
2017-07-18T03:51:11.083Z,96845.13
2017-07-18T03:53:36.894Z,96884.75
2017-07-18T03:56:02.730Z,96882.63
2017-07-18T03:58:28.554Z,96882.83
2017-07-18T04:00:54.441Z,96885.06
2017-07-18T04:03:20.317Z,96880.00
2017-07-18T04:05:46.143Z,96878.88
2017-07-18T04:08:11.976Z,96884.17
2017-07-18T04:10:37.811Z,96885.61
2017-07-18T04:13:03.736Z,96884.25
2017-07-18T04:15:29.610Z,96883.45
2017-07-18T04:17:55.437Z,96889.96
2017-07-18T04:20:21.302Z,96888.42
2017-07-18T04:22:47.091Z,96876.81
2017-07-18T04:25:12.954Z,96850.70
2017-07-18T04:27:38.814Z,96887.38
2017-07-18T04:30:04.669Z,96895.20
2017-07-18T04:32:30.571Z,96889.52
2017-07-18T04:34:56.495Z,96888.14
2017-07-18T04:37:22.401Z,96890.01
2017-07-18T04:39:48.269Z,96897.37
2017-07-18T04:42:14.098Z,96898.87
2017-07-18T04:44:39.916Z,96900.59
2017-07-18T04:47:05.742Z,96903.11
2017-07-18T04:49:31.623Z,96906.59
2017-07-18T04:51:57.421Z,96906.63
2017-07-18T04:54:23.329Z,96900.66
2017-07-18T04:56:49.233Z,96862.02
2017-07-18T04:59:15.249Z,96896.42
2017-07-18T05:01:41.053Z,96892.27
2017-07-18T05:04:06.896Z,96895.23
2017-07-18T05:06:32.906Z,96888.44
2017-07-18T05:08:58.946Z,96891.91
2017-07-18T05:11:24.983Z,96888.73
2017-07-18T05:13:50.914Z,96885.68
2017-07-18T05:16:16.707Z,96888.40
2017-07-18T05:18:42.567Z,96892.92
2017-07-18T05:21:08.368Z,96891.36
2017-07-18T05:23:34.160Z,96888.23
2017-07-18T05:26:00.633Z,96870.58
2017-07-18T05:28:26.438Z,96889.57
2017-07-18T05:30:52.255Z,96887.77
2017-07-18T05:33:18.086Z,96888.23
2017-07-18T05:35:44.003Z,96891.38
2017-07-18T05:38:09.831Z,96890.00
2017-07-18T05:40:35.629Z,96894.03
2017-07-18T05:43:01.659Z,96885.86
2017-07-18T05:45:27.502Z,96885.74
2017-07-18T05:47:53.383Z,96879.51
2017-07-18T05:50:19.213Z,96883.80
2017-07-18T05:52:45.049Z,96850.26
2017-07-18T05:55:10.905Z,96881.94
2017-07-18T05:57:36.749Z,96884.07
2017-07-18T06:00:02.670Z,96887.33
2017-07-18T06:02:28.591Z,96881.84
2017-07-18T06:04:54.434Z,96875.66
2017-07-18T06:07:20.378Z,96885.52
2017-07-18T06:09:46.208Z,96881.86
2017-07-18T06:12:12.104Z,96886.82
2017-07-18T06:14:38.038Z,96882.00
2017-07-18T06:17:03.850Z,96868.45
2017-07-18T06:19:29.698Z,96886.92
2017-07-18T06:21:55.581Z,96886.45
2017-07-18T06:24:21.490Z,96879.11
2017-07-18T06:26:47.306Z,96895.91
2017-07-18T06:29:13.345Z,96878.95
2017-07-18T06:31:39.331Z,96879.77
2017-07-18T06:34:05.160Z,96882.37
2017-07-18T06:36:31.121Z,96880.20
2017-07-18T06:38:57.031Z,96881.92
2017-07-18T06:41:22.931Z,96882.70
2017-07-18T06:43:48.766Z,96798.84
2017-07-18T06:46:14.683Z,96875.54
2017-07-18T06:48:40.712Z,96873.18
2017-07-18T06:51:07.746Z,96869.80
2017-07-18T06:53:33.803Z,96864.22
2017-07-18T06:55:59.762Z,96866.11
2017-07-18T06:58:25.598Z,96860.13
2017-07-18T07:00:51.649Z,96863.87
2017-07-18T07:03:17.639Z,96856.06
2017-07-18T07:05:43.663Z,96859.41
2017-07-18T07:08:10.316Z,96863.63
2017-07-18T07:10:36.285Z,96857.48
2017-07-18T07:13:02.137Z,96861.02
2017-07-18T07:15:28.150Z,96858.14
2017-07-18T07:17:54.218Z,96858.95
2017-07-18T07:20:20.248Z,96849.64
2017-07-18T07:22:46.147Z,96853.52
2017-07-18T07:25:12.109Z,96831.81
2017-07-18T07:27:38.955Z,96856.52
2017-07-18T07:30:05.480Z,96852.27
2017-07-18T07:32:33.094Z,96853.84
2017-07-18T07:35:00.162Z,96853.86
2017-07-18T07:37:27.134Z,96849.62
2017-07-18T07:39:54.005Z,96828.91
2017-07-18T07:42:20.615Z,96845.41
2017-07-18T07:44:49.022Z,96825.66
2017-07-18T07:47:15.673Z,96840.21
2017-07-18T07:49:42.778Z,96837.63
2017-07-18T07:52:09.444Z,96839.89
2017-07-18T07:54:35.883Z,96835.48
2017-07-18T07:57:02.394Z,96838.73
2017-07-18T07:59:29.040Z,96830.86
2017-07-18T08:01:55.667Z,96835.84
2017-07-18T08:04:21.988Z,96837.14
2017-07-18T08:06:48.525Z,96837.84
2017-07-18T08:09:14.446Z,96835.91
2017-07-18T08:11:41.167Z,96832.13
2017-07-18T08:14:07.752Z,96831.59
2017-07-18T08:16:34.413Z,96826.14
2017-07-18T08:19:00.914Z,96833.34
2017-07-18T08:21:27.652Z,96831.97
2017-07-18T08:23:54.296Z,96814.63
2017-07-18T08:26:20.247Z,96831.91
2017-07-18T08:28:46.315Z,96825.23
2017-07-18T08:31:12.235Z,96825.77
2017-07-18T08:33:38.095Z,96810.73
2017-07-18T08:36:03.949Z,96821.13
2017-07-18T08:38:29.961Z,96818.81
2017-07-18T08:40:55.908Z,96814.92
2017-07-18T08:43:21.824Z,96816.45
2017-07-18T08:45:47.803Z,96823.28
2017-07-18T08:48:13.654Z,96825.22
2017-07-18T08:50:39.594Z,96818.11
2017-07-18T08:53:05.450Z,96819.12
2017-07-18T08:55:31.315Z,96820.11
2017-07-18T08:57:57.138Z,96817.56
2017-07-18T09:00:23.119Z,96816.34
2017-07-18T09:02:48.982Z,96816.36
2017-07-18T09:05:14.914Z,96812.69
2017-07-18T09:07:40.836Z,96804.62
2017-07-18T09:10:06.769Z,96810.36
2017-07-18T09:12:32.595Z,96818.14
2017-07-18T09:14:58.509Z,96816.14
2017-07-18T09:17:24.413Z,96815.85
2017-07-18T09:19:50.340Z,96818.88
2017-07-18T09:22:16.296Z,96812.63
2017-07-18T09:24:42.242Z,96809.03
2017-07-18T09:27:08.148Z,96784.12
2017-07-18T09:29:34.203Z,96807.06
2017-07-18T09:32:00.037Z,96805.23
2017-07-18T09:34:26.004Z,96796.78
2017-07-18T09:36:51.866Z,96795.72
2017-07-18T09:39:17.828Z,96798.84
2017-07-18T09:41:43.683Z,96786.99
2017-07-18T09:44:10.500Z,96789.48
2017-07-18T09:46:36.374Z,96791.73
2017-07-18T09:49:02.325Z,96789.02
2017-07-18T09:51:28.230Z,96785.63
2017-07-18T09:53:54.157Z,96788.24
2017-07-18T09:56:20.061Z,96783.48
2017-07-18T09:58:46.032Z,96784.66
2017-07-18T10:01:11.898Z,96781.84
2017-07-18T10:03:37.831Z,96776.25
2017-07-18T10:06:03.704Z,96774.82
2017-07-18T10:08:29.562Z,96779.05
2017-07-18T10:10:55.628Z,96777.40
2017-07-18T10:13:21.560Z,96772.55
2017-07-18T10:15:47.407Z,96778.57
2017-07-18T10:18:13.241Z,96775.77
2017-07-18T10:20:39.299Z,96773.00
2017-07-18T10:23:05.202Z,96773.59
2017-07-18T10:25:31.143Z,96772.63
2017-07-18T10:27:57.172Z,96775.44
2017-07-18T10:30:23.072Z,96764.89
2017-07-18T10:32:55.914Z,96761.89
2017-07-18T10:35:21.757Z,96765.70
2017-07-18T10:37:47.700Z,96760.61
2017-07-18T10:40:13.580Z,96757.20
2017-07-18T10:42:39.612Z,96749.00
2017-07-18T10:45:05.461Z,96755.28
2017-07-18T10:47:31.497Z,96751.58
2017-07-18T10:49:57.454Z,96746.53
2017-07-18T10:52:23.306Z,96743.65
2017-07-18T10:54:49.293Z,96745.55
2017-07-18T10:57:15.145Z,96728.39
2017-07-18T10:59:40.997Z,96737.66
2017-07-18T11:02:06.945Z,96734.19
2017-07-18T11:04:32.813Z,96734.20
2017-07-18T11:06:58.732Z,96729.68
2017-07-18T11:09:24.624Z,96702.58
2017-07-18T11:11:50.469Z,96725.12
2017-07-18T11:14:16.394Z,96725.52
2017-07-18T11:16:42.384Z,96715.45
2017-07-18T11:19:08.238Z,96704.06
2017-07-18T11:21:34.104Z,96720.98
2017-07-18T11:24:00.041Z,96716.06
2017-07-18T11:26:26.012Z,96708.99
2017-07-18T11:28:51.929Z,96712.44
2017-07-18T11:31:17.842Z,96710.11
2017-07-18T11:33:43.777Z,96706.73
2017-07-18T11:36:09.631Z,96703.03
2017-07-18T11:38:35.530Z,96704.61
2017-07-18T11:41:01.536Z,96696.84
2017-07-18T11:43:27.454Z,96693.94
2017-07-18T11:45:53.337Z,96691.34
2017-07-18T11:48:19.392Z,96691.86
2017-07-18T11:50:45.361Z,96684.95
2017-07-18T11:53:11.189Z,96690.28
2017-07-18T11:55:37.065Z,96688.09
2017-07-18T11:58:03.028Z,96687.29
2017-07-18T12:00:28.894Z,96674.62
2017-07-18T12:03:01.670Z,96670.19
2017-07-18T12:05:27.643Z,96665.13
2017-07-18T12:07:53.531Z,96675.68
2017-07-18T12:10:19.452Z,96677.17
2017-07-18T12:12:45.356Z,96675.27
2017-07-18T12:15:11.465Z,96666.09
2017-07-18T12:17:37.494Z,96664.78
2017-07-18T12:20:03.389Z,96640.11
2017-07-18T12:22:29.246Z,96662.77
2017-07-18T12:24:55.225Z,96660.24
2017-07-18T12:27:21.120Z,96664.47
2017-07-18T12:29:47.042Z,96662.83
2017-07-18T12:32:12.869Z,96662.29
2017-07-18T12:34:38.748Z,96660.13
2017-07-18T12:37:04.709Z,96653.88
2017-07-18T12:39:30.604Z,96651.78
2017-07-18T12:41:56.611Z,96660.16
2017-07-18T12:44:22.572Z,96645.24
2017-07-18T12:46:48.535Z,96641.03
2017-07-18T12:49:14.448Z,96626.78
2017-07-18T12:51:40.565Z,96635.30
2017-07-18T12:54:06.478Z,96627.38
2017-07-18T12:56:32.327Z,96625.88
2017-07-18T12:58:58.217Z,96635.05
2017-07-18T13:01:24.110Z,96625.95
2017-07-18T13:03:49.998Z,96624.22
2017-07-18T13:06:15.950Z,96620.51
2017-07-18T13:08:41.863Z,96606.38
2017-07-18T13:11:07.832Z,96611.20
2017-07-18T13:13:33.692Z,96609.40
2017-07-18T13:15:59.867Z,96604.02
2017-07-18T13:18:25.786Z,96613.78
2017-07-18T13:20:51.789Z,96550.78
2017-07-18T13:23:17.756Z,96600.27
2017-07-18T13:25:43.612Z,96607.63
2017-07-18T13:28:09.548Z,96603.27
2017-07-18T13:30:35.450Z,96600.23
2017-07-18T13:33:01.381Z,96596.57
2017-07-18T13:35:27.277Z,96574.70
2017-07-18T13:37:53.218Z,96590.98
2017-07-18T13:40:19.070Z,96587.03
2017-07-18T13:42:44.978Z,96587.22
2017-07-18T13:45:10.896Z,96602.83
2017-07-18T13:47:36.870Z,96597.80
2017-07-18T13:50:02.812Z,96559.55
2017-07-18T13:52:28.764Z,96587.98
2017-07-18T13:54:54.661Z,96589.34
2017-07-18T13:57:21.204Z,96577.72
2017-07-18T13:59:47.148Z,96583.16
2017-07-18T14:02:13.125Z,96589.97
2017-07-18T14:04:38.979Z,96584.06
2017-07-18T14:07:04.923Z,96578.80
2017-07-18T14:09:30.809Z,96571.83
2017-07-18T14:11:56.740Z,96569.72
2017-07-18T14:14:22.710Z,96564.86
2017-07-18T14:16:48.574Z,96565.16
2017-07-18T14:19:14.428Z,96568.47
2017-07-18T14:21:40.349Z,96560.22
2017-07-18T14:24:06.237Z,96565.05
2017-07-18T14:26:32.129Z,96554.45
2017-07-18T14:28:58.114Z,96551.89
2017-07-18T14:31:24.001Z,96552.17
2017-07-18T14:33:49.932Z,96545.92
2017-07-18T14:36:15.789Z,96549.80
2017-07-18T14:38:41.653Z,96542.21
2017-07-18T14:41:07.704Z,96538.44
2017-07-18T14:43:33.689Z,96540.41
2017-07-18T14:45:59.657Z,96537.33
2017-07-18T14:48:25.648Z,96526.44
2017-07-18T14:50:51.477Z,96504.20
2017-07-18T14:53:17.329Z,96497.62
2017-07-18T14:55:43.260Z,96519.61
2017-07-18T14:58:09.259Z,96506.02
2017-07-18T15:00:35.303Z,96514.51
2017-07-18T15:03:01.267Z,96495.08
2017-07-18T15:05:27.182Z,96510.40
2017-07-18T15:07:53.197Z,96510.97
2017-07-18T15:10:19.040Z,96508.91
2017-07-18T15:12:44.891Z,96507.70
2017-07-18T15:15:10.804Z,96503.24
2017-07-18T15:17:36.735Z,96498.98
2017-07-18T15:20:02.610Z,96498.59
2017-07-18T15:22:28.747Z,96501.66
2017-07-18T15:24:54.592Z,96501.92
2017-07-18T15:27:35.649Z,96492.38
2017-07-18T15:30:01.567Z,96500.97
2017-07-18T15:32:27.497Z,96497.96
2017-07-18T15:34:53.465Z,96493.59
2017-07-18T15:37:19.532Z,96492.89
2017-07-18T15:39:45.452Z,96487.36
2017-07-18T15:42:11.316Z,96487.50
2017-07-18T15:44:37.184Z,96488.23
2017-07-18T15:47:03.119Z,96484.86
2017-07-18T15:49:28.960Z,96480.46
2017-07-18T15:51:54.838Z,96483.94
2017-07-18T15:54:20.823Z,96478.09
2017-07-18T15:56:46.696Z,96469.02
2017-07-18T15:59:12.676Z,96473.08
2017-07-18T16:01:38.632Z,96461.29
2017-07-18T16:04:04.496Z,96458.75
2017-07-18T16:06:30.388Z,96460.40
2017-07-18T16:08:56.358Z,96460.91
2017-07-18T16:11:22.392Z,96459.47
2017-07-18T16:13:48.475Z,96458.44
2017-07-18T16:16:14.368Z,96451.49
2017-07-18T16:18:40.209Z,96458.32
2017-07-18T16:21:06.308Z,96457.80
2017-07-18T16:23:32.157Z,96455.89
2017-07-18T16:25:58.035Z,96455.30
2017-07-18T16:28:24.096Z,96453.80
2017-07-18T16:30:49.938Z,96447.66
2017-07-18T16:33:15.819Z,96434.48
2017-07-18T16:35:41.735Z,96413.54
2017-07-18T16:38:07.692Z,96438.47
2017-07-18T16:40:33.529Z,96440.70
2017-07-18T16:42:59.400Z,96437.84
2017-07-18T16:45:25.338Z,96436.52
2017-07-18T16:47:51.275Z,96440.28
2017-07-18T16:50:17.180Z,96446.27
2017-07-18T16:52:43.033Z,96436.66
2017-07-18T16:55:09.066Z,96430.45
2017-07-18T16:57:35.110Z,96434.32
2017-07-18T17:00:01.167Z,96439.55
2017-07-18T17:02:27.133Z,96428.03
2017-07-18T17:04:52.996Z,96434.05
2017-07-18T17:07:18.863Z,96424.41
2017-07-18T17:09:44.856Z,96402.70
2017-07-18T17:12:10.780Z,96423.31
2017-07-18T17:14:36.627Z,96422.88
2017-07-18T17:17:09.411Z,96429.41
2017-07-18T17:19:35.275Z,96425.71
2017-07-18T17:22:01.351Z,96426.18
2017-07-18T17:24:27.288Z,96426.28
2017-07-18T17:26:53.304Z,96428.50
2017-07-18T17:29:19.383Z,96432.91
2017-07-18T17:31:45.255Z,96431.66
2017-07-18T17:34:11.117Z,96429.33
2017-07-18T17:36:37.046Z,96345.17
2017-07-18T17:39:02.905Z,96437.72
2017-07-18T17:41:28.908Z,96443.44
2017-07-18T17:43:54.865Z,96419.50
2017-07-18T17:46:20.730Z,96437.55
2017-07-18T17:48:46.613Z,96438.06
2017-07-18T17:51:12.571Z,96435.47
2017-07-18T17:53:38.528Z,96425.96
2017-07-18T17:56:04.376Z,96429.72
2017-07-18T17:58:30.372Z,96429.30
2017-07-18T18:00:56.257Z,96433.75
2017-07-18T18:03:22.106Z,96425.64
2017-07-18T18:05:48.140Z,96424.66
2017-07-18T18:08:14.152Z,96426.64
2017-07-18T18:10:40.105Z,96415.53
2017-07-18T18:13:06.202Z,96420.99
2017-07-18T18:15:32.147Z,96416.34
2017-07-18T18:17:58.186Z,96419.59
2017-07-18T18:20:24.167Z,96425.02
2017-07-18T18:22:50.059Z,96425.05
2017-07-18T18:25:15.905Z,96428.00
2017-07-18T18:27:41.932Z,96435.02
2017-07-18T18:30:07.812Z,96438.60
2017-07-18T18:32:33.702Z,96431.41
2017-07-18T18:34:59.576Z,96435.14
2017-07-18T18:37:25.477Z,96434.30
2017-07-18T18:39:51.398Z,96432.44
2017-07-18T18:42:17.367Z,96437.80
2017-07-18T18:44:43.222Z,96437.61
2017-07-18T18:47:09.160Z,96436.27
2017-07-18T18:49:35.063Z,96418.58
2017-07-18T18:52:01.054Z,96446.72
2017-07-18T18:54:26.933Z,96446.42
2017-07-18T18:56:52.866Z,96450.77
2017-07-18T18:59:18.736Z,96459.00
2017-07-18T19:01:44.808Z,96459.00
2017-07-18T19:04:10.746Z,96455.98
2017-07-18T19:06:36.572Z,96463.44
2017-07-18T19:09:02.649Z,96462.62
2017-07-18T19:11:28.676Z,96468.59
2017-07-18T19:13:54.618Z,96463.70
2017-07-18T19:16:20.500Z,96464.53
2017-07-18T19:18:46.481Z,96466.58
2017-07-18T19:21:12.525Z,96466.50
2017-07-18T19:23:38.418Z,96464.75
2017-07-18T19:26:04.342Z,96474.54
2017-07-18T19:28:30.209Z,96465.66
2017-07-18T19:30:56.256Z,96464.55
2017-07-18T19:33:22.209Z,96462.28
2017-07-18T19:35:48.300Z,96463.41
2017-07-18T19:38:14.232Z,96463.31
2017-07-18T19:40:40.091Z,96464.22
2017-07-18T19:43:06.047Z,96465.61
2017-07-18T19:45:32.021Z,96462.44
2017-07-18T19:47:57.888Z,96453.57
2017-07-18T19:50:23.882Z,96456.22
2017-07-18T19:52:49.821Z,96453.73
2017-07-18T19:55:15.796Z,96437.95
2017-07-18T19:57:41.779Z,96454.12
2017-07-18T20:00:07.679Z,96421.68
2017-07-18T20:02:33.656Z,96452.47
2017-07-18T20:04:59.581Z,96448.58
2017-07-18T20:07:25.460Z,96444.64
2017-07-18T20:09:51.381Z,96444.22
2017-07-18T20:12:17.344Z,96447.41
2017-07-18T20:14:43.260Z,96449.45
2017-07-18T20:17:09.290Z,96447.66
2017-07-18T20:19:35.205Z,96452.92
2017-07-18T20:22:01.107Z,96455.17
2017-07-18T20:24:27.072Z,96459.83
2017-07-18T20:26:52.953Z,96453.64
2017-07-18T20:29:18.860Z,96453.16
2017-07-18T20:31:44.854Z,96444.55
2017-07-18T20:34:11.530Z,96459.66
2017-07-18T20:36:37.417Z,96476.20
2017-07-18T20:39:03.441Z,96477.63
2017-07-18T20:41:29.496Z,96468.92
2017-07-18T20:43:55.428Z,96468.89
2017-07-18T20:46:21.420Z,96461.32
2017-07-18T20:48:47.356Z,96449.50
2017-07-18T20:51:13.367Z,96467.13
2017-07-18T20:53:39.265Z,96462.69
2017-07-18T20:56:05.136Z,96457.91
2017-07-18T20:58:31.060Z,96455.82
2017-07-18T21:00:57.774Z,96451.03
2017-07-18T21:03:23.793Z,96452.30
2017-07-18T21:05:49.670Z,96456.60
2017-07-18T21:08:15.766Z,96463.52
2017-07-18T21:10:41.701Z,96461.45
2017-07-18T21:13:07.532Z,96458.65
2017-07-18T21:15:34.365Z,96458.02
2017-07-18T21:18:00.236Z,96458.66
2017-07-18T21:20:26.253Z,96456.58
2017-07-18T21:22:52.228Z,96451.35
2017-07-18T21:25:18.085Z,96453.05
2017-07-18T21:27:43.927Z,96454.27
2017-07-18T21:30:09.888Z,96454.91
2017-07-18T21:32:35.785Z,96463.36
2017-07-18T21:35:01.697Z,96463.13
2017-07-18T21:37:27.545Z,96462.30
2017-07-18T21:39:53.416Z,96458.02
2017-07-18T21:42:19.365Z,96452.16
2017-07-18T21:44:45.261Z,96449.39
2017-07-18T21:47:11.196Z,96448.41
2017-07-18T21:49:37.148Z,96453.96
2017-07-18T21:52:03.039Z,96445.34
2017-07-18T21:54:28.881Z,96447.20
2017-07-18T21:56:54.777Z,96445.52
2017-07-18T21:59:21.513Z,96447.02
2017-07-18T22:01:47.373Z,96433.24
2017-07-18T22:04:13.300Z,96454.45
2017-07-18T22:06:39.228Z,96449.20
2017-07-18T22:09:05.065Z,96451.13
2017-07-18T22:11:30.890Z,96448.00
2017-07-18T22:13:56.768Z,96447.09
2017-07-18T22:16:22.765Z,96452.27
2017-07-18T22:18:48.689Z,96445.48
2017-07-18T22:21:14.583Z,96451.55
2017-07-18T22:23:40.521Z,96443.59
2017-07-18T22:26:06.362Z,96395.83
2017-07-18T22:28:32.269Z,96437.17
2017-07-18T22:30:58.212Z,96433.18
2017-07-18T22:33:24.054Z,96434.41
2017-07-18T22:35:49.887Z,96433.76
2017-07-18T22:38:15.982Z,96433.94
2017-07-18T22:40:41.934Z,96428.52
2017-07-18T22:43:07.774Z,96427.77
2017-07-18T22:45:33.741Z,96429.85
2017-07-18T22:47:59.620Z,96418.89
2017-07-18T22:50:25.545Z,96424.44
2017-07-18T22:52:51.448Z,96423.19
2017-07-18T22:55:17.312Z,96420.20
2017-07-18T22:57:43.242Z,96414.05
2017-07-18T23:00:09.099Z,96417.00
2017-07-18T23:02:34.981Z,96412.52
2017-07-18T23:05:00.877Z,96411.63
2017-07-18T23:07:26.784Z,96404.86
2017-07-18T23:09:52.767Z,96413.77
2017-07-18T23:12:18.816Z,96407.05
2017-07-18T23:14:44.762Z,96408.92
2017-07-18T23:17:10.633Z,96390.86
2017-07-18T23:19:36.682Z,96406.20
2017-07-18T23:22:02.616Z,96405.05
2017-07-18T23:24:28.496Z,96406.05
2017-07-18T23:26:54.347Z,96414.21
2017-07-18T23:29:20.272Z,96406.75
2017-07-18T23:31:46.957Z,96405.17
2017-07-18T23:34:12.810Z,96403.03
2017-07-18T23:36:38.700Z,96401.61
2017-07-18T23:39:04.583Z,96392.65
2017-07-18T23:41:30.472Z,96367.38
2017-07-18T23:43:56.517Z,96394.81
2017-07-18T23:46:22.521Z,96391.36
2017-07-18T23:48:48.513Z,96385.30
2017-07-18T23:51:14.339Z,96381.27
2017-07-18T23:53:40.221Z,96378.33
2017-07-18T23:56:06.140Z,96380.39
2017-07-18T23:58:31.992Z,96377.42
